Ana Sayfa
METAR-TAF:

METAR-TAF

Havaalanları :

Nouakchott, Moritanya

Enlem: 18-18-36N, Boylam: 015-58-11W, yükseklik: 3 m

Güncel hava durumu gözlemi

Rapor saat 12:30 UTC de 24 dakika önce yapıldı.
Rüzgar doğu/kuzeydoğudan 16 kt
Sıcaklık 33°C
Nem 19%
Basınç 1012 hPa
Görüş mesafesi: 3000 m
Savrulan toz

METAR: GQNO 241230Z 07016KT 3000 BLDU NSC 33/06 Q1012 TEMPO 2000 BLSA

Saat: 12:54 (12:54 UTC)

Tahmin

Rapor saat 11:00 UTC de 1 saat ve 54 dakika önce yapıldı.
Ayın 24'si saat 12 UTC'den ayın 25'si saat 18 UTC'ye kadar geçerli Tahmin
Rüzgar doğu/kuzeydoğudan 16 kt
Görüş mesafesi: 3500 m
Savrulan kum
Dönüşüyor
ayın 24'si saat 15 UTC'den ayın 24'si saat 17 UTC'ye kadar
Rüzgar kuzey/kuzeybatıdan 12 kt
Görüş mesafesi: 6000 m
Geçici
ayın 25'si saat 10 UTC'den ayın 25'si saat 16 UTC'ye kadar
Rüzgar doğudan 14 kt
Görüş mesafesi: 3000 m
Savrulan kum

TAF: GQNO 241100Z 2412/2518 07016KT 3500 BLSA NSC BECMG 2415/2417 33012KT 6000 NSW TEMPO 2510/2516 08014KT 3000 BLSA

4.000'den fazla havaalanı için hava durumu gözlemleri ve tahminleri (METAR ve TAF raporları).

Kullanılabilir istasyonlar harita üzerinde sarı ve kırmızı noktalarla gösterilir.

İstasyonun adını görmek için fareyi noktanın üzerinde gezdirin.

Sonrasında hava gözlem ve tahminlerini görmek için tıklayın.

Haritayı değiştirmek için: yaklaştırmak için siyah artı işaretli yeşil düğmeye ve uzaklaştırmak için de eksi işaretli düğmeye hızla tıklayın; bitişik haritalar için yeşil okları kullanın.


METAR-TAF: